Time;durP1;ratioP1;P1;durP2;ratioP2;P2;SDS_P1;SDS_P2;PMS_P1;PMS_P2;Temp;Humidity;BMP_temperature;BMP_pressure;BME280_temperature;BME280_humidity;BME280_pressure;Samples;Min_cycle;Max_cycle;Signal;HPM_P1;HPM_P2
2021/05/01 00:00:33;;;;;;;13.60;11.57;;;8.80;99.90;;;9.13;73.52;101363.47;5075554;28;20045;-76
2021/05/01 00:03:00;;;;;;;12.07;10.50;;;8.80;99.90;;;9.11;73.37;101352.00;5075513;28;20106;-76
2021/05/01 00:05:28;;;;;;;12.80;11.60;;;8.80;99.90;;;9.11;73.75;101352.00;5075184;28;20382;-76
2021/05/01 00:07:55;;;;;;;12.68;11.38;;;8.70;99.90;;;9.13;73.59;101354.66;5075473;28;20105;-76
2021/05/01 00:10:23;;;;;;;13.68;11.55;;;8.80;99.90;;;9.10;72.98;101352.84;5075393;28;20067;-76
2021/05/01 00:12:50;;;;;;;11.80;10.60;;;8.80;99.90;;;9.00;73.81;101351.88;5075227;28;20397;-76
2021/05/01 00:15:18;;;;;;;12.38;11.20;;;8.70;99.90;;;9.00;73.37;101361.59;5075286;28;20048;-76
2021/05/01 00:17:46;;;;;;;12.85;11.55;;;8.70;99.90;;;8.98;73.31;101353.63;5075276;28;20378;-76
2021/05/01 00:20:17;;;;;;;12.75;11.45;;;8.70;99.90;;;8.81;72.93;101334.13;5075247;28;20055;-76
2021/05/01 00:22:45;;;;;;;13.23;11.35;;;8.60;99.90;;;9.04;72.67;101347.53;5075129;28;20102;-76
2021/05/01 00:25:14;;;;;;;12.73;11.38;;;8.70;99.90;;;9.09;72.81;101346.72;5075010;28;20063;-76
2021/05/01 00:27:43;;;;;;;13.98;11.07;;;8.70;99.90;;;9.18;72.55;101347.66;5075189;28;20047;-76
2021/05/01 00:30:13;;;;;;;19.98;11.75;;;8.80;99.90;;;9.26;72.61;101345.97;5075000;28;20044;-76
2021/05/01 00:32:40;;;;;;;12.73;11.45;;;8.90;99.90;;;9.23;72.70;101348.59;5074956;28;20049;-76
2021/05/01 00:35:10;;;;;;;11.88;10.60;;;8.90;99.90;;;9.23;72.44;101343.31;5074910;28;20041;-76
2021/05/01 00:37:38;;;;;;;18.55;10.88;;;8.90;99.90;;;9.26;71.91;101343.31;5073638;28;20044;-76
2021/05/01 00:40:08;;;;;;;18.48;12.20;;;9.00;99.90;;;9.36;71.72;101335.50;5074741;28;20464;-76
2021/05/01 00:42:36;;;;;;;12.87;11.03;;;9.00;99.90;;;9.34;71.55;101336.34;5075065;28;20058;-76
2021/05/01 00:45:07;;;;;;;14.07;11.13;;;9.00;99.90;;;9.21;71.78;101331.84;5072894;28;20049;-76
2021/05/01 00:47:35;;;;;;;14.18;12.57;;;8.90;99.90;;;9.18;71.81;101337.09;5074720;28;20062;-76
2021/05/01 00:50:05;;;;;;;21.60;13.55;;;8.90;99.90;;;9.19;71.53;101333.59;5074309;28;20143;-76
2021/05/01 00:52:34;;;;;;;14.63;12.88;;;8.90;99.90;;;9.10;71.53;101313.28;5090199;28;20053;-75
2021/05/01 00:55:03;;;;;;;17.20;13.38;;;9.00;99.90;;;8.68;71.39;101247.84;5074150;28;20056;-76
2021/05/01 00:57:31;;;;;;;16.58;12.50;;;9.00;99.90;;;9.16;71.57;101331.81;5074308;28;20080;-76
2021/05/01 00:59:58;;;;;;;15.43;12.85;;;8.80;99.90;;;9.15;71.79;101300.13;5072926;28;20048;-76
2021/05/01 01:02:28;;;;;;;16.92;13.43;;;8.90;99.90;;;9.27;71.57;101327.50;5074421;28;20071;-76
2021/05/01 01:04:56;;;;;;;17.70;12.52;;;9.00;99.90;;;9.39;71.91;101326.75;5073709;28;20045;-76
2021/05/01 01:07:23;;;;;;;15.82;12.13;;;9.00;99.90;;;9.32;71.60;101323.16;5074096;28;20048;-76
2021/05/01 01:09:52;;;;;;;16.35;13.10;;;9.00;99.90;;;8.61;71.64;101230.22;5074292;28;20048;-76
2021/05/01 01:12:19;;;;;;;13.43;12.02;;;8.90;99.90;;;8.90;72.46;101321.00;5089204;28;20037;-76
2021/05/01 01:14:47;;;;;;;16.67;13.65;;;8.60;99.90;;;8.96;72.27;101322.84;5073492;28;20040;-76
2021/05/01 01:17:14;;;;;;;14.30;12.80;;;8.60;99.90;;;8.89;72.61;101319.25;5073592;28;20069;-76
2021/05/01 01:19:43;;;;;;;15.25;13.65;;;8.60;99.90;;;8.85;72.60;101316.56;5074142;28;20111;-76
2021/05/01 01:22:16;;;;;;;14.07;12.50;;;8.50;99.90;;;8.80;72.58;101307.75;5073805;28;20036;-76
2021/05/01 01:24:43;;;;;;;14.02;12.63;;;8.60;99.90;;;8.79;72.68;101313.88;5089227;28;20053;-76
2021/05/01 01:27:11;;;;;;;13.63;11.75;;;8.50;99.90;;;8.77;73.10;101311.22;5073380;28;20494;-76
2021/05/01 01:29:42;;;;;;;13.35;11.52;;;8.50;99.90;;;8.80;72.75;101307.75;5073631;28;20056;-76
2021/05/01 01:32:12;;;;;;;14.77;11.48;;;8.50;99.90;;;8.21;72.83;101206.91;5073631;28;20056;-75
2021/05/01 01:34:43;;;;;;;13.38;12.05;;;8.50;99.90;;;8.75;73.44;101312.09;5072310;28;20048;-77
2021/05/01 01:37:10;;;;;;;;;;;8.50;99.90;;;8.54;72.79;101317.13;5073711;28;20052;-76
2021/05/01 01:39:41;;;;;;;11.43;7.60;;;8.30;99.90;;;8.17;72.91;101314.03;5089058;28;19921;-77
2021/05/01 01:42:11;;;;;;;14.23;11.45;;;8.00;99.90;;;7.78;73.31;101288.94;5073487;28;20048;-76
2021/05/01 01:44:39;;;;;;;8.70;8.00;;;7.60;99.90;;;7.87;73.78;101318.03;5073439;28;20044;-76
2021/05/01 01:47:06;;;;;;;8.77;8.00;;;7.50;99.90;;;7.76;74.29;101295.94;5088905;28;20121;-76
2021/05/01 01:49:35;;;;;;;10.38;9.30;;;7.60;99.90;;;7.68;74.49;101295.84;5071679;28;20047;-76
2021/05/01 01:52:03;;;;;;;10.70;9.63;;;7.50;99.90;;;7.74;74.59;101292.41;5072967;28;20045;-76
2021/05/01 01:54:31;;;;;;;10.45;9.65;;;7.60;99.90;;;7.87;74.56;101307.50;5073237;28;20150;-76
2021/05/01 01:57:00;;;;;;;10.90;9.02;;;7.60;99.90;;;7.85;74.25;101306.56;5071424;28;20048;-76
2021/05/01 01:59:28;;;;;;;10.18;9.35;;;7.60;99.90;;;7.88;74.47;101311.88;5073200;28;20059;-76
2021/05/01 02:01:56;;;;;;;9.98;9.18;;;7.60;99.90;;;7.92;74.16;101314.59;5071809;28;20463;-76
2021/05/01 02:04:24;;;;;;;10.82;9.93;;;7.60;99.90;;;7.96;73.95;101316.38;5072981;28;20135;-76
2021/05/01 02:06:51;;;;;;;13.55;12.10;;;7.70;99.90;;;7.94;74.03;101307.59;5072658;28;20090;-76
2021/05/01 02:09:19;;;;;;;11.20;10.30;;;7.70;99.90;;;7.90;73.31;101321.56;5072736;28;20048;-76
2021/05/01 02:11:46;;;;;;;9.98;9.18;;;7.70;99.90;;;7.77;73.58;101287.16;5071683;28;20458;-76
2021/05/01 02:14:15;;;;;;;10.90;10.00;;;7.60;99.90;;;7.87;73.29;101307.50;5071532;28;20387;-76
2021/05/01 02:16:42;;;;;;;11.43;10.50;;;7.60;99.90;;;7.84;73.30;101305.69;5072851;28;20037;-76
2021/05/01 02:19:09;;;;;;;13.20;11.88;;;7.60;99.90;;;7.80;73.46;101303.88;5072832;28;20080;-76
2021/05/01 02:21:37;;;;;;;16.30;14.70;;;7.60;99.90;;;7.80;73.20;101303.88;5072856;28;20076;-76
2021/05/01 02:24:06;;;;;;;12.30;11.27;;;7.50;99.90;;;7.75;73.29;101308.19;5072467;28;20401;-75
2021/05/01 02:26:33;;;;;;;14.93;13.57;;;7.50;99.90;;;7.79;73.53;101307.38;5071471;28;20075;-76
2021/05/01 02:29:01;;;;;;;16.08;13.50;;;7.50;99.90;;;7.89;73.12;101309.28;5071528;28;20105;-76
2021/05/01 02:31:29;;;;;;;13.75;12.45;;;7.60;99.90;;;7.86;72.95;101310.97;5072781;28;20123;-76
2021/05/01 02:33:56;;;;;;;12.05;11.05;;;7.60;99.90;;;7.83;73.00;101306.56;5072457;28;20047;-76
2021/05/01 02:36:24;;;;;;;12.65;11.35;;;7.60;99.90;;;7.86;72.75;101309.22;5072756;28;20045;-76
2021/05/01 02:38:51;;;;;;;17.45;14.18;;;7.60;99.90;;;7.94;73.02;101311.97;5072594;28;20383;-76
2021/05/01 02:41:22;;;;;;;18.15;14.20;;;7.70;99.90;;;7.97;72.88;101310.28;5072636;28;20406;-76
2021/05/01 02:43:50;;;;;;;16.05;14.27;;;7.70;99.90;;;8.10;72.75;101306.03;5105065;28;20048;-76
2021/05/01 02:46:18;;;;;;;15.73;12.52;;;7.80;99.90;;;8.03;73.19;101312.97;5072273;28;20150;-76
2021/05/01 02:48:46;;;;;;;11.23;10.15;;;7.80;99.90;;;7.95;72.93;101300.56;5072567;28;20059;-76
2021/05/01 02:51:13;;;;;;;10.20;9.30;;;7.70;99.90;;;7.83;73.58;101303.03;5071225;28;20045;-76
2021/05/01 02:53:41;;;;;;;10.35;9.45;;;7.60;99.90;;;7.85;73.73;101298.69;5072471;28;20440;-76
2021/05/01 02:56:08;;;;;;;10.38;9.10;;;7.60;99.90;;;7.83;73.90;101298.66;5072805;28;20052;-76
2021/05/01 02:58:35;;;;;;;9.73;8.82;;;7.60;99.90;;;7.75;74.30;101284.50;5071047;28;20072;-76
2021/05/01 03:01:03;;;;;;;9.73;8.73;;;7.50;99.90;;;7.77;74.00;101295.94;5074494;28;20440;-76
2021/05/01 03:03:31;;;;;;;12.55;11.15;;;7.50;99.90;;;7.68;73.33;101282.66;5076253;28;20132;-76
2021/05/01 03:05:59;;;;;;;12.25;11.02;;;7.50;99.90;;;7.68;73.58;101287.03;5076068;28;20043;-77
2021/05/01 03:08:27;;;;;;;11.70;10.57;;;7.40;99.90;;;7.68;73.85;101281.78;5076141;28;20131;-76
2021/05/01 03:10:54;;;;;;;11.65;10.45;;;7.40;99.90;;;7.65;74.15;101284.34;5076335;28;20036;-75
2021/05/01 03:13:21;;;;;;;10.07;8.88;;;7.40;99.90;;;7.64;73.96;101283.50;5076127;28;20052;-75
2021/05/01 03:15:49;;;;;;;10.07;9.27;;;7.40;99.90;;;7.44;73.98;101281.41;5076290;28;20041;-75
2021/05/01 03:18:16;;;;;;;9.50;8.68;;;7.30;99.90;;;7.34;74.01;101276.91;5076402;28;20370;-76
2021/05/01 03:20:45;;;;;;;8.95;8.25;;;7.10;99.90;;;7.44;74.73;101269.16;5076409;28;20505;-75
2021/05/01 03:23:13;;;;;;;9.82;9.05;;;7.10;99.90;;;7.48;74.71;101273.59;5075972;28;20490;-76
2021/05/01 03:25:40;;;;;;;11.65;10.48;;;7.20;99.90;;;7.46;74.86;101269.16;5074867;28;20068;-75
2021/05/01 03:28:08;;;;;;;11.52;10.52;;;7.10;99.90;;;7.45;74.64;101273.56;5075896;28;20060;-76
2021/05/01 03:30:35;;;;;;;18.83;7.40;;;7.10;99.90;;;7.37;75.45;101269.94;5076116;28;20102;-75
2021/05/01 03:33:02;;;;;;;10.30;6.90;;;7.10;99.90;;;7.23;75.29;101269.72;5074834;28;20125;-76
2021/05/01 03:35:30;;;;;;;7.22;6.60;;;7.00;99.90;;;7.17;75.57;101271.34;5076003;28;20044;-75
2021/05/01 03:37:57;;;;;;;8.00;7.30;;;6.90;99.90;;;7.17;75.47;101272.25;5075962;28;20110;-76
2021/05/01 03:40:26;;;;;;;8.15;7.38;;;6.90;99.90;;;7.06;75.63;101273.84;5075952;28;20456;-75
2021/05/01 03:42:53;;;;;;;8.43;7.82;;;6.80;99.90;;;7.08;75.94;101265.97;5075758;28;20040;-76
2021/05/01 03:45:20;;;;;;;8.38;7.78;;;6.80;99.90;;;7.15;75.88;101267.81;5075766;28;20052;-75
2021/05/01 03:47:48;;;;;;;10.30;9.38;;;6.80;99.90;;;7.22;75.63;101272.31;5075839;28;20086;-75
2021/05/01 03:50:15;;;;;;;9.75;8.95;;;6.90;99.90;;;7.21;75.38;101270.56;5075600;28;20048;-75
2021/05/01 03:52:43;;;;;;;10.38;9.52;;;7.00;99.90;;;7.17;75.60;101259.09;5074512;28;20044;-75
2021/05/01 03:55:11;;;;;;;10.77;9.90;;;6.90;99.90;;;7.25;75.31;101264.47;5075421;28;20401;-76
2021/05/01 03:57:52;;;;;;;9.45;8.75;;;6.90;99.90;;;7.18;74.91;101271.38;5091126;28;20060;-76
2021/05/01 04:00:22;;;;;;;12.45;11.25;;;7.00;99.90;;;7.19;74.66;101269.63;5075552;28;20122;-75
2021/05/01 04:02:51;;;;;;;14.53;13.23;;;7.00;99.90;;;7.24;74.37;101271.47;5075590;28;20052;-76
2021/05/01 04:05:21;;;;;;;14.90;13.00;;;7.00;99.90;;;7.26;74.25;101261.84;5091074;28;20076;-76
2021/05/01 04:07:49;;;;;;;14.40;12.05;;;7.10;99.90;;;7.36;74.05;101268.16;5075160;28;20086;-75
2021/05/01 04:10:16;;;;;;;12.55;11.23;;;7.10;99.90;;;7.35;74.14;101261.13;5075183;28;20055;-75
2021/05/01 04:12:44;;;;;;;11.98;10.80;;;7.10;99.90;;;7.21;74.49;101255.66;5075002;28;20080;-75
2021/05/01 04:15:13;;;;;;;11.57;10.40;;;7.10;99.90;;;7.29;74.50;101269.81;5075323;28;20044;-75
2021/05/01 04:17:41;;;;;;;10.80;9.90;;;7.00;99.90;;;7.34;74.60;101266.38;5075287;28;20079;-76
2021/05/01 04:20:11;;;;;;;11.50;10.50;;;7.00;99.90;;;7.31;74.85;101256.69;5075218;28;20072;-75
2021/05/01 04:22:38;;;;;;;10.40;9.50;;;7.10;99.90;;;7.35;74.79;101262.88;5075448;28;20048;-75
2021/05/01 04:25:08;;;;;;;9.35;8.55;;;7.10;99.90;;;7.32;75.01;101265.47;5075034;28;20051;-75
2021/05/01 04:27:35;;;;;;;14.82;7.78;;;7.10;99.90;;;7.10;75.20;101267.75;5075126;28;20052;-75
2021/05/01 04:30:03;;;;;;;20.93;8.70;;;6.90;99.90;;;6.73;75.52;101268.00;5073766;28;20458;-75
2021/05/01 04:32:31;;;;;;;9.93;9.13;;;6.50;99.90;;;6.74;76.17;101258.34;5075242;28;20056;-75
2021/05/01 04:34:59;;;;;;;11.63;10.52;;;6.40;99.90;;;6.72;76.37;101254.81;5073698;28;20426;-76
2021/05/01 04:37:26;;;;;;;10.75;9.10;;;6.50;99.90;;;6.84;76.54;101266.44;5073603;28;20067;-75
2021/05/01 04:39:53;;;;;;;10.10;9.20;;;6.50;99.90;;;6.85;76.71;101267.34;5074881;28;20036;-75
2021/05/01 04:42:21;;;;;;;10.03;9.13;;;6.60;99.90;;;6.74;77.16;101267.13;5073517;28;20094;-75
2021/05/01 04:44:48;;;;;;;10.27;9.40;;;6.50;99.90;;;6.66;77.11;101273.13;5073026;28;20093;-76
2021/05/01 04:47:16;;;;;;;12.40;10.43;;;6.30;99.90;;;6.78;77.43;101286.47;5074974;28;20044;-75
2021/05/01 04:49:46;;;;;;;12.77;10.60;;;6.40;99.90;;;6.87;77.16;101263.00;5074688;28;20050;-75
2021/05/01 04:52:13;;;;;;;11.00;9.70;;;6.60;99.90;;;7.07;76.97;101274.69;5073351;28;20509;-76
2021/05/01 04:54:40;;;;;;;10.93;9.93;;;6.70;99.90;;;7.20;76.95;101271.44;5074600;28;20036;-75
2021/05/01 04:57:08;;;;;;;11.90;10.65;;;6.80;99.90;;;7.32;76.58;101274.22;5074263;28;20078;-75
2021/05/01 04:59:36;;;;;;;11.15;9.98;;;7.00;99.90;;;7.39;76.39;101267.31;5074465;28;20102;-75
2021/05/01 05:02:04;;;;;;;10.43;9.45;;;7.10;99.90;;;7.52;76.57;101285.94;5074162;28;20528;-75
2021/05/01 05:04:31;;;;;;;10.77;9.77;;;7.30;99.90;;;7.57;76.32;101281.59;5072984;28;20046;-74
2021/05/01 05:07:00;;;;;;;14.50;11.75;;;7.30;99.90;;;7.66;76.40;101284.41;5072993;28;20048;-75
2021/05/01 05:09:27;;;;;;;16.60;12.80;;;7.40;99.90;;;7.84;76.19;101279.34;5074270;28;20062;-75
2021/05/01 05:11:54;;;;;;;14.05;12.18;;;7.50;99.90;;;7.91;75.90;101280.34;5074500;28;20051;-74
2021/05/01 05:14:22;;;;;;;12.95;11.68;;;7.60;99.90;;;8.02;75.70;101270.81;5074217;28;20048;-74
2021/05/01 05:16:49;;;;;;;18.35;13.55;;;7.70;99.90;;;8.10;76.11;101270.03;5074062;28;20059;-75
2021/05/01 05:19:17;;;;;;;15.77;12.38;;;7.80;99.90;;;8.32;75.42;101281.75;5073950;28;20040;-75
2021/05/01 05:21:44;;;;;;;14.13;12.63;;;8.00;99.90;;;8.43;74.35;101277.47;5073960;28;20053;-75
2021/05/01 05:24:13;;;;;;;18.20;12.38;;;8.10;99.90;;;8.56;73.24;101281.09;5072982;28;20052;-75
2021/05/01 05:26:40;;;;;;;13.63;12.23;;;8.30;99.90;;;8.64;72.89;101275.06;5073579;28;20060;-74
2021/05/01 05:29:10;;;;;;;13.60;11.30;;;8.40;99.90;;;8.86;72.46;101282.31;5074047;28;20082;-74
2021/05/01 05:31:37;;;;;;;11.87;10.57;;;8.60;99.90;;;8.99;72.38;101288.56;5072544;28;20056;-74
2021/05/01 05:34:04;;;;;;;13.23;10.48;;;8.80;99.90;;;8.66;72.83;101198.59;5073807;28;20354;-74
2021/05/01 05:36:32;;;;;;;12.93;10.68;;;8.90;99.90;;;9.44;73.33;101298.59;5072111;28;20059;-75
2021/05/01 05:38:59;;;;;;;11.57;10.45;;;9.10;99.90;;;9.67;72.42;101305.81;5073597;28;20048;-74
2021/05/01 05:41:29;;;;;;;14.32;10.52;;;9.40;99.90;;;9.58;71.41;101300.44;5073400;28;20051;-75
2021/05/01 05:43:56;;;;;;;12.45;10.50;;;9.50;99.90;;;9.57;70.74;101306.63;5073322;28;20075;-74
2021/05/01 05:46:23;;;;;;;12.35;9.80;;;9.40;99.90;;;9.60;70.55;101309.25;5073537;28;20040;-75
2021/05/01 05:48:51;;;;;;;14.00;10.05;;;9.40;99.90;;;9.62;70.88;101304.88;5073504;28;20482;-75
2021/05/01 05:51:19;;;;;;;14.43;10.32;;;9.30;99.90;;;9.91;69.83;101302.44;5072192;28;20048;-75
2021/05/01 05:53:47;;;;;;;15.40;10.35;;;9.50;99.90;;;10.06;69.59;101309.53;5073298;28;20048;-75
2021/05/01 05:56:15;;;;;;;12.85;9.52;;;9.70;99.90;;;10.17;69.50;101307.84;5088928;28;20059;-75
2021/05/01 05:58:44;;;;;;;12.48;10.05;;;9.90;99.90;;;10.36;69.92;101312.31;5073352;28;20094;-74
2021/05/01 06:01:11;;;;;;;15.48;10.23;;;10.00;99.90;;;10.41;70.48;101302.66;5073243;28;20101;-74
2021/05/01 06:03:40;;;;;;;13.95;9.90;;;10.20;99.90;;;10.79;70.85;101319.50;5073135;28;20048;-75
2021/05/01 06:06:12;;;;;;;16.90;10.38;;;10.50;99.90;;;11.03;70.57;101311.63;5073192;28;20044;-75
2021/05/01 06:08:39;;;;;;;16.88;9.80;;;10.80;99.90;;;11.21;69.76;101306.31;5071703;28;20064;-75
2021/05/01 06:11:11;;;;;;;18.83;10.65;;;11.00;99.90;;;11.49;69.11;101317.78;5073148;28;20441;-75
2021/05/01 06:13:39;;;;;;;15.23;9.30;;;11.20;99.90;;;11.59;68.61;101315.09;5072896;28;20055;-74
2021/05/01 06:16:08;;;;;;;14.95;10.57;;;11.30;99.90;;;11.69;69.06;101316.03;5073057;28;20054;-74
2021/05/01 06:18:39;;;;;;;18.83;10.00;;;11.40;99.90;;;11.48;68.41;101295.69;5073059;28;20528;-74
2021/05/01 06:21:09;;;;;;;;;;;11.40;99.90;;;11.44;68.35;101315.13;5073474;28;20056;-74
2021/05/01 06:23:38;;;;;;;18.27;9.32;;;11.30;99.90;;;11.48;68.61;101319.53;5088601;28;20274;-74
2021/05/01 06:26:06;;;;;;;17.67;9.90;;;11.20;99.90;;;11.42;68.18;101308.09;5072909;28;20101;-74
2021/05/01 06:28:35;;;;;;;14.90;10.07;;;11.30;99.90;;;11.39;68.70;101305.41;5072985;28;20387;-74
2021/05/01 06:31:04;;;;;;;19.60;10.05;;;11.20;99.90;;;11.49;69.05;101315.13;5073071;28;20044;-74
2021/05/01 06:33:37;;;;;;;20.02;9.18;;;11.20;99.90;;;11.47;68.48;101308.94;5072894;28;20040;-74
2021/05/01 06:36:06;;;;;;;18.15;10.25;;;11.30;99.90;;;11.28;68.57;101304.56;5071297;28;20052;-74
2021/05/01 06:38:34;;;;;;;15.60;9.27;;;11.10;99.90;;;11.28;68.80;101307.19;5072595;28;20136;-74
2021/05/01 06:41:07;;;;;;;14.57;9.75;;;11.10;99.90;;;11.24;68.33;101303.69;5072546;28;20375;-75
2021/05/01 06:43:50;;;;;;;16.25;9.80;;;11.00;99.90;;;11.03;69.52;101306.31;5072603;28;20048;-75
2021/05/01 06:46:21;;;;;;;16.65;10.05;;;10.90;99.90;;;10.86;68.96;101306.28;5072803;28;20049;-76
2021/05/01 06:48:54;;;;;;;18.25;9.45;;;10.70;99.90;;;10.21;69.39;101201.25;5072806;28;20068;-75
2021/05/01 06:51:22;;;;;;;18.33;8.90;;;10.60;99.90;;;10.96;69.12;101304.53;5072877;28;20385;-75
2021/05/01 06:53:49;;;;;;;15.52;9.90;;;10.70;99.90;;;11.08;69.60;101314.25;5072759;28;20036;-73
2021/05/01 06:56:18;;;;;;;15.88;9.68;;;10.90;99.90;;;11.12;68.28;101311.59;5072666;28;20045;-75
2021/05/01 06:58:48;;;;;;;13.90;8.85;;;10.90;99.90;;;11.12;67.73;101310.72;5071267;28;20080;-74
2021/05/01 07:01:16;;;;;;;15.95;8.82;;;11.00;99.90;;;11.12;67.32;101301.03;5072739;28;20056;-74
2021/05/01 07:03:46;;;;;;;15.57;9.50;;;11.00;99.90;;;11.18;67.16;101310.72;5072617;28;20055;-74
2021/05/01 07:06:16;;;;;;;14.15;7.95;;;11.00;99.90;;;10.95;67.44;101316.00;5072627;28;20098;-75
2021/05/01 07:08:44;;;;;;;13.88;8.70;;;10.80;99.90;;;11.04;67.89;101284.25;5072814;28;20056;-75
2021/05/01 07:11:12;;;;;;;11.77;8.88;;;11.00;99.90;;;11.50;68.52;101323.06;5072390;28;20049;-74
2021/05/01 07:13:40;;;;;;;14.20;9.35;;;11.30;99.90;;;11.35;66.56;101325.72;5072404;28;20040;-74
2021/05/01 07:16:10;;;;;;;12.45;9.10;;;11.30;99.90;;;10.75;67.08;101236.59;5072448;28;20045;-75
2021/05/01 07:18:39;;;;;;;16.48;9.13;;;11.20;99.90;;;11.18;66.88;101314.25;5072203;28;20559;-74
2021/05/01 07:21:08;;;;;;;16.38;8.20;;;11.00;99.90;;;11.39;66.72;101321.31;5072565;28;20182;-75
2021/05/01 07:23:36;;;;;;;13.93;9.05;;;11.10;99.90;;;11.20;66.29;101304.56;5072123;28;20067;-74
2021/05/01 07:26:05;;;;;;;14.05;8.70;;;11.10;99.90;;;11.29;66.51;101328.38;5087668;28;20048;-74
2021/05/01 07:28:38;;;;;;;16.83;8.90;;;11.10;99.90;;;11.28;66.46;101341.63;5072357;28;20033;-74
2021/05/01 07:31:09;;;;;;;17.70;8.68;;;11.10;99.90;;;11.53;66.58;101340.72;5072325;28;20051;-74
2021/05/01 07:33:46;;;;;;;11.60;8.38;;;11.30;99.90;;;11.50;65.50;101331.00;5072019;28;20044;-75
2021/05/01 07:36:20;;;;;;;13.80;8.25;;;11.40;99.90;;;11.60;64.82;101329.22;5071134;28;20135;-74
2021/05/01 07:38:52;;;;;;;13.45;8.65;;;11.40;99.90;;;11.65;64.21;101325.72;5071003;28;20056;-74
2021/05/01 07:41:24;;;;;;;13.02;7.45;;;11.50;99.90;;;11.40;63.46;101323.09;5072047;28;20070;-74
2021/05/01 07:43:54;;;;;;;13.23;8.25;;;11.20;99.90;;;11.34;64.65;101329.25;5072154;28;20040;-75
2021/05/01 07:46:23;;;;;;;11.45;7.63;;;11.20;99.90;;;11.08;65.72;101328.38;5073152;28;20036;-74
2021/05/01 07:48:51;;;;;;;16.88;8.00;;;11.00;99.90;;;10.98;65.67;101331.88;5091181;28;20383;-75
2021/05/01 07:51:22;;;;;;;13.90;8.57;;;10.80;99.90;;;10.84;65.19;101308.03;5074344;28;20409;-75
2021/05/01 07:54:04;;;;;;;11.15;8.57;;;10.80;99.90;;;10.82;65.73;101330.97;5075760;28;20454;-75
2021/05/01 07:56:32;;;;;;;12.95;8.82;;;10.70;99.90;;;10.89;65.21;101334.53;5075643;28;20044;-75
2021/05/01 07:59:01;;;;;;;12.38;7.38;;;10.70;99.90;;;11.09;64.84;101332.75;5075014;28;20067;-75
2021/05/01 08:01:29;;;;;;;14.82;8.27;;;10.80;99.90;;;11.16;64.04;101334.56;5075182;28;20064;-75
2021/05/01 08:03:57;;;;;;;11.77;7.47;;;10.90;99.90;;;11.35;62.78;101315.13;5075502;28;20040;-74
2021/05/01 08:06:26;;;;;;;10.30;6.72;;;11.20;99.90;;;11.57;60.74;101332.78;5075162;28;20037;-75
2021/05/01 08:08:54;;;;;;;7.25;6.53;;;11.30;99.90;;;11.59;60.57;101338.09;5075067;28;20140;-75
2021/05/01 08:11:24;;;;;;;12.55;7.22;;;11.40;99.90;;;11.69;60.59;101334.56;5075260;28;20041;-74
2021/05/01 08:13:51;;;;;;;9.45;7.22;;;11.60;99.90;;;11.65;61.54;101336.31;5075217;28;20044;-74
2021/05/01 08:16:19;;;;;;;9.98;6.90;;;11.50;99.90;;;11.75;61.40;101329.25;5075271;28;20048;-74
2021/05/01 08:18:46;;;;;;;10.07;6.65;;;11.60;99.90;;;11.54;60.28;101335.44;5075235;28;20118;-74
2021/05/01 08:21:14;;;;;;;7.65;6.90;;;11.40;99.90;;;11.60;60.24;101335.44;5074909;28;20064;-74
2021/05/01 08:23:42;;;;;;;10.65;6.60;;;11.40;99.90;;;11.74;59.92;101346.03;5075081;28;20048;-74
2021/05/01 08:26:09;;;;;;;9.43;6.90;;;11.50;99.90;;;11.76;61.08;101344.28;5073713;28;20049;-74
2021/05/01 08:28:37;;;;;;;10.88;7.05;;;11.60;99.90;;;12.07;61.37;101343.31;5073793;28;20056;-74
2021/05/01 08:31:05;;;;;;;10.05;6.72;;;11.80;99.90;;;11.38;59.65;101227.72;5074523;28;20044;-75
2021/05/01 08:33:33;;;;;;;9.48;7.45;;;11.90;99.90;;;12.15;60.42;101348.59;5073286;28;20110;-74
2021/05/01 08:36:00;;;;;;;9.45;6.38;;;11.90;99.90;;;12.25;60.43;101335.28;5074607;28;20045;-74
2021/05/01 08:38:32;;;;;;;9.52;6.72;;;12.10;99.90;;;12.37;60.55;101342.31;5074863;28;20123;-75
2021/05/01 08:41:00;;;;;;;7.88;6.85;;;12.20;99.90;;;12.56;60.20;101342.22;5075159;28;20040;-75
2021/05/01 08:43:27;;;;;;;7.95;6.72;;;12.30;99.90;;;12.41;60.78;101347.59;5074560;28;20048;-74
2021/05/01 08:45:57;;;;;;;9.60;6.68;;;12.30;99.90;;;12.62;60.23;101352.81;5074652;28;20045;-75
2021/05/01 08:48:26;;;;;;;10.18;6.85;;;12.40;99.90;;;12.66;59.44;101340.41;5073399;28;20145;-74
2021/05/01 08:51:00;;;;;;;11.85;7.53;;;12.50;99.90;;;12.66;59.92;101349.25;5074651;28;20057;-74
2021/05/01 08:53:27;;;;;;;9.68;6.25;;;12.50;99.90;;;12.35;59.21;101341.47;5073309;28;20044;-75
2021/05/01 08:55:55;;;;;;;8.75;6.55;;;12.30;99.90;;;12.35;59.28;101337.00;5074534;28;20037;-74
2021/05/01 08:58:22;;;;;;;9.02;5.95;;;12.10;99.90;;;12.39;59.20;101349.38;5071677;28;20060;-75
2021/05/01 09:00:51;;;;;;;8.82;6.57;;;12.20;99.90;;;12.53;60.50;101341.34;5074315;28;20102;-75
2021/05/01 09:03:22;;;;;;;14.07;7.28;;;12.30;99.90;;;12.31;59.03;101339.72;5072901;28;20060;-75
2021/05/01 09:05:52;;;;;;;7.13;6.43;;;12.30;99.90;;;12.55;58.23;101345.78;5072945;28;20389;-75
2021/05/01 09:08:22;;;;;;;13.27;6.93;;;12.30;99.90;;;12.74;57.90;101335.94;5074575;28;20044;-75
2021/05/01 09:10:52;;;;;;;7.20;5.85;;;12.50;99.90;;;12.79;58.58;101331.50;5074021;28;20048;-75
2021/05/01 09:13:22;;;;;;;7.13;5.95;;;12.60;99.90;;;12.43;57.93;101336.97;5072693;28;20052;-75
2021/05/01 09:16:02;;;;;;;9.73;6.50;;;12.30;99.90;;;12.41;57.44;101350.25;5073788;28;20148;-74
2021/05/01 09:18:48;;;;;;;13.02;7.32;;;12.30;99.90;;;12.06;58.63;101346.84;5074096;28;20282;-75
2021/05/01 09:21:18;;;;;;;9.07;6.82;;;12.00;99.90;;;12.42;58.76;101338.78;5073694;28;20098;-75
2021/05/01 09:23:46;;;;;;;10.20;6.90;;;12.20;99.90;;;12.17;59.32;101349.47;5074276;28;20056;-75
2021/05/01 09:26:14;;;;;;;9.63;6.93;;;12.10;99.90;;;12.47;58.77;101338.72;5089074;28;20041;-75
2021/05/01 09:28:44;;;;;;;12.98;6.35;;;12.20;99.90;;;12.08;56.88;101269.97;5073843;28;20055;-75
2021/05/01 09:31:14;;;;;;;9.52;6.22;;;12.30;99.90;;;12.53;57.08;101341.34;5073874;28;20052;-75
2021/05/01 09:33:44;;;;;;;7.38;6.55;;;12.30;99.90;;;12.78;57.05;101345.66;5073602;28;20498;-75
2021/05/01 09:36:15;;;;;;;10.00;5.90;;;12.50;99.90;;;13.02;56.33;101347.28;5073442;28;20044;-75
2021/05/01 09:38:44;;;;;;;;;;;12.80;99.90;;;12.98;57.43;101342.88;5073776;28;20113;-75
2021/05/01 09:41:16;;;;;;;8.07;6.30;;;12.80;99.90;;;13.28;56.86;101332.03;5073346;28;20293;-75
2021/05/01 09:44:02;;;;;;;9.50;6.25;;;13.10;99.90;;;13.50;55.15;101347.81;5072160;28;20156;-75
2021/05/01 09:46:31;;;;;;;12.23;6.28;;;13.30;99.90;;;13.77;55.42;101348.44;5073484;28;20111;-75
2021/05/01 09:49:07;;;;;;;9.20;6.40;;;13.50;99.90;;;14.18;53.76;101347.13;5072133;28;20048;-75
2021/05/01 09:51:45;;;;;;;8.13;6.07;;;14.00;99.90;;;14.34;53.39;101346.06;5072239;28;20389;-75
2021/05/01 09:54:14;;;;;;;10.40;6.72;;;14.10;99.90;;;14.24;52.56;101346.16;5072860;28;20510;-75
2021/05/01 09:56:43;;;;;;;9.88;6.53;;;14.10;99.90;;;14.28;53.49;101339.94;5073378;28;20041;-75
2021/05/01 09:59:11;;;;;;;8.25;6.53;;;14.20;99.90;;;13.57;55.65;101327.38;5071881;28;20048;-76
2021/05/01 10:01:39;;;;;;;11.85;7.25;;;13.60;99.90;;;13.12;56.02;101346.34;5073051;28;20044;-75
2021/05/01 10:04:16;;;;;;;9.43;6.22;;;13.10;99.90;;;12.88;56.92;101355.31;5071898;28;20044;-77
2021/05/01 10:06:50;;;;;;;10.27;7.38;;;12.80;99.90;;;13.16;57.72;101346.31;5073166;28;20052;-74
2021/05/01 10:09:24;;;;;;;12.25;6.97;;;12.90;99.90;;;12.97;57.22;101331.34;5072716;28;20516;-75
2021/05/01 10:12:01;;;;;;;10.68;7.60;;;12.90;99.90;;;12.90;57.89;101348.22;5071813;28;20053;-75
2021/05/01 10:14:45;;;;;;;9.57;6.93;;;12.80;99.90;;;12.82;57.39;101339.44;5071711;28;20058;-75
2021/05/01 10:17:16;;;;;;;9.88;6.93;;;12.60;99.90;;;12.84;56.42;101336.75;5073058;28;20044;-75
2021/05/01 10:19:53;;;;;;;10.23;7.50;;;12.70;99.90;;;13.06;56.91;101349.94;5072771;28;20115;-75